createdAt,value
2023-02-11T00:01:21.225Z,101153.40
2023-02-11T00:05:25.328Z,101136.20
2023-02-11T00:09:31.738Z,101154.95
2023-02-11T00:13:35.600Z,101163.82
2023-02-11T00:17:39.224Z,101150.27
2023-02-11T00:26:33.325Z,101125.59
2023-02-11T00:30:40.964Z,101112.21
2023-02-11T00:34:44.601Z,101109.27
2023-02-11T00:38:50.364Z,101099.17
2023-02-11T00:42:20.649Z,101083.52
2023-02-11T00:46:06.727Z,101060.77
2023-02-11T00:49:49.635Z,101048.78
2023-02-11T00:54:07.758Z,101051.58
2023-02-11T00:57:52.407Z,101060.98
2023-02-11T01:01:44.947Z,101039.96
2023-02-11T01:05:53.614Z,101036.13
2023-02-11T01:14:33.163Z,101029.87
2023-02-11T01:18:32.145Z,101035.45
2023-02-11T01:22:47.700Z,101034.23
2023-02-11T01:26:41.301Z,101027.63
2023-02-11T01:30:34.919Z,101020.35
2023-02-11T01:34:37.375Z,101020.51
2023-02-11T01:38:41.387Z,101005.58
2023-02-11T01:42:51.145Z,100996.86
2023-02-11T01:47:07.740Z,100976.71
2023-02-11T01:51:01.300Z,100971.17
2023-02-11T01:54:46.022Z,100968.23
2023-02-11T01:58:34.180Z,100975.35
2023-02-11T02:02:27.846Z,100989.94
2023-02-11T02:06:40.769Z,100979.70
2023-02-11T02:10:44.900Z,100968.77
2023-02-11T02:14:24.262Z,100937.48
2023-02-11T02:18:27.842Z,100921.33
2023-02-11T02:22:35.293Z,100908.65
2023-02-11T02:26:37.325Z,100911.77
2023-02-11T02:30:56.495Z,100939.74
2023-02-11T02:34:50.635Z,100961.64
2023-02-11T02:38:54.550Z,100967.89
2023-02-11T02:42:51.131Z,100979.68
2023-02-11T02:46:40.608Z,100968.55
2023-02-11T02:50:35.489Z,100946.48
2023-02-11T02:54:38.844Z,100950.66
2023-02-11T02:58:46.975Z,100954.13
2023-02-11T03:02:50.598Z,100955.67
2023-02-11T03:06:54.286Z,100947.98
2023-02-11T03:10:45.406Z,100937.73
2023-02-11T03:14:11.274Z,100938.58
2023-02-11T03:18:15.231Z,100951.62
2023-02-11T03:22:08.922Z,100930.06
2023-02-11T03:26:12.483Z,100919.10
2023-02-11T03:30:14.506Z,100918.77
2023-02-11T03:34:26.550Z,100917.03
2023-02-11T03:38:20.092Z,100917.72
2023-02-11T03:42:23.673Z,100917.73
2023-02-11T03:46:08.415Z,100911.10
2023-02-11T03:54:56.707Z,100888.79
2023-02-11T03:58:36.222Z,100890.18
2023-02-11T04:02:15.513Z,100895.41
2023-02-11T04:06:11.983Z,100885.34
2023-02-11T04:10:15.982Z,100877.15
2023-02-11T04:14:37.870Z,100861.52
2023-02-11T04:18:41.528Z,100862.19
2023-02-11T04:22:36.361Z,100870.55
2023-02-11T04:26:44.339Z,100865.00
2023-02-11T04:30:40.553Z,100867.26
2023-02-11T04:34:32.846Z,100864.98
2023-02-11T04:38:26.774Z,100881.14
2023-02-11T04:47:19.165Z,100856.31
2023-02-11T04:51:21.827Z,100852.63
2023-02-11T04:55:29.647Z,100853.48
2023-02-11T04:59:19.089Z,100860.93
2023-02-11T05:03:36.628Z,100842.71
2023-02-11T05:07:40.602Z,100835.11
2023-02-11T05:11:35.749Z,100832.13
2023-02-11T05:20:03.744Z,100825.55
2023-02-11T05:23:19.724Z,100845.17
2023-02-11T05:27:28.360Z,100844.49
2023-02-11T05:31:15.039Z,100840.16
2023-02-11T05:34:53.086Z,100831.98
2023-02-11T05:38:56.661Z,100834.92
2023-02-11T05:43:18.960Z,100844.13
2023-02-11T05:47:14.925Z,100826.89
2023-02-11T05:50:58.287Z,100823.91
2023-02-11T05:55:01.868Z,100820.96
2023-02-11T05:58:48.962Z,100816.77
2023-02-11T06:03:01.579Z,100809.08
2023-02-11T06:07:05.352Z,100798.23
2023-02-11T06:10:45.353Z,100790.20
2023-02-11T06:15:03.044Z,100787.42
2023-02-11T06:19:06.741Z,100770.52
2023-02-11T06:23:10.324Z,100769.30
2023-02-11T06:27:18.525Z,100761.31
2023-02-11T06:31:15.283Z,100761.58
2023-02-11T06:35:18.957Z,100749.41
2023-02-11T06:39:14.130Z,100752.47
2023-02-11T06:43:17.741Z,100771.56
2023-02-11T06:47:21.369Z,100783.69
2023-02-11T06:51:24.956Z,100782.80
2023-02-11T07:00:20.483Z,100795.32
2023-02-11T07:04:04.062Z,100784.27
2023-02-11T07:08:07.692Z,100795.92
2023-02-11T07:11:49.892Z,100807.27
2023-02-11T07:20:38.760Z,100823.21
2023-02-11T07:24:48.563Z,100826.16
2023-02-11T07:28:52.586Z,100822.13
2023-02-11T07:32:44.012Z,100807.98
2023-02-11T07:40:57.429Z,100815.80
2023-02-11T07:44:39.963Z,100812.60
2023-02-11T07:48:36.492Z,100799.41
2023-02-11T07:52:41.094Z,100758.66
2023-02-11T07:56:37.485Z,100768.00
2023-02-11T08:00:41.191Z,100761.39
2023-02-11T08:04:45.365Z,100766.92
2023-02-11T08:08:55.734Z,100769.27
2023-02-11T08:12:59.868Z,100773.69
2023-02-11T08:17:01.681Z,100765.98
2023-02-11T08:21:05.338Z,100746.18
2023-02-11T08:25:18.251Z,100739.47
2023-02-11T08:29:14.726Z,100727.48
2023-02-11T08:32:48.568Z,100775.68
2023-02-11T08:36:05.127Z,100770.27
2023-02-11T08:40:01.479Z,100767.96
2023-02-11T08:44:16.029Z,100782.00
2023-02-11T08:48:08.385Z,100786.29
2023-02-11T08:52:27.215Z,100789.04
2023-02-11T08:56:26.252Z,100789.57
2023-02-11T09:00:23.694Z,100786.38
2023-02-11T09:04:27.303Z,100792.81
2023-02-11T09:08:30.929Z,100792.59
2023-02-11T09:12:13.522Z,100786.85
2023-02-11T09:16:09.854Z,100769.01
2023-02-11T09:19:51.677Z,100751.27
2023-02-11T09:23:51.396Z,100759.20
2023-02-11T09:27:55.143Z,100755.29
2023-02-11T09:31:51.728Z,100744.60
2023-02-11T09:35:46.882Z,100736.77
2023-02-11T09:39:37.199Z,100743.98
2023-02-11T09:43:40.119Z,100738.04
2023-02-11T09:47:46.870Z,100744.39
2023-02-11T09:51:47.546Z,100751.73
2023-02-11T09:55:57.750Z,100776.81
2023-02-11T09:59:51.548Z,100783.32
2023-02-11T10:03:51.229Z,100800.45
2023-02-11T10:07:54.849Z,100802.50
2023-02-11T10:11:59.671Z,100792.50
2023-02-11T10:16:15.925Z,100784.23
2023-02-11T10:20:20.130Z,100771.63
2023-02-11T10:24:24.099Z,100761.05
2023-02-11T10:28:28.228Z,100766.34
2023-02-11T10:32:41.121Z,100781.52
2023-02-11T10:36:44.766Z,100789.91
2023-02-11T10:40:44.084Z,100772.73
2023-02-11T10:44:47.739Z,100769.06
2023-02-11T10:48:55.448Z,100770.11
2023-02-11T10:57:39.571Z,100775.83
2023-02-11T11:02:00.619Z,100767.65
2023-02-11T11:11:05.476Z,100757.66
2023-02-11T11:15:08.175Z,100748.55
2023-02-11T11:19:11.909Z,100731.17
2023-02-11T11:23:21.562Z,100727.42
2023-02-11T11:27:29.043Z,100719.38
2023-02-11T11:31:32.753Z,100720.48
2023-02-11T11:35:41.141Z,100726.96
2023-02-11T11:39:50.689Z,100713.02
2023-02-11T11:48:45.411Z,100699.93
2023-02-11T11:53:04.885Z,100717.40
2023-02-11T11:57:17.801Z,100722.14
2023-02-11T12:01:11.420Z,100728.06
2023-02-11T12:05:18.036Z,100723.92
2023-02-11T12:09:29.870Z,100743.34
2023-02-11T12:13:44.688Z,100736.33
2023-02-11T12:18:13.005Z,100730.14
2023-02-11T12:22:28.878Z,100712.14
2023-02-11T12:26:47.787Z,100722.45
2023-02-11T12:30:57.198Z,100719.27
2023-02-11T12:35:13.824Z,100720.93
2023-02-11T12:39:20.293Z,100728.05
2023-02-11T12:43:37.494Z,100724.38
2023-02-11T12:47:55.522Z,100709.46
2023-02-11T12:52:11.344Z,100713.30
2023-02-11T12:56:19.965Z,100718.56
2023-02-11T13:00:32.833Z,100707.30
2023-02-11T13:04:41.217Z,100689.50
2023-02-11T13:08:44.800Z,100677.64
2023-02-11T13:12:47.025Z,100693.15
2023-02-11T13:17:15.182Z,100688.74
2023-02-11T13:21:41.942Z,100693.67
2023-02-11T13:25:55.138Z,100695.27
2023-02-11T13:30:04.431Z,100685.28
2023-02-11T13:34:17.262Z,100687.36
2023-02-11T13:38:10.255Z,100675.23
2023-02-11T13:42:39.209Z,100673.05
2023-02-11T13:46:18.913Z,100681.13
2023-02-11T13:50:19.654Z,100690.69
2023-02-11T13:54:26.003Z,100689.89
2023-02-11T13:58:19.741Z,100704.02
2023-02-11T14:02:46.253Z,100707.16
2023-02-11T14:06:48.328Z,100704.79
2023-02-11T14:10:51.188Z,100691.42
2023-02-11T14:14:42.878Z,100696.92
2023-02-11T14:18:45.053Z,100696.59
2023-02-11T14:22:48.654Z,100717.50
2023-02-11T14:31:36.244Z,100703.91
2023-02-11T14:35:49.603Z,100722.21
2023-02-11T14:40:15.208Z,100723.25
2023-02-11T14:44:26.114Z,100747.67
2023-02-11T14:48:35.319Z,100744.20
2023-02-11T14:52:39.370Z,100749.05
2023-02-11T14:56:43.044Z,100759.51
2023-02-11T15:00:41.979Z,100756.50
2023-02-11T15:04:46.571Z,100765.17
2023-02-11T15:08:34.941Z,100763.03
2023-02-11T15:12:41.508Z,100778.02
2023-02-11T15:16:36.313Z,100771.17
2023-02-11T15:20:35.300Z,100780.23
2023-02-11T15:24:44.987Z,100776.39
2023-02-11T15:28:48.606Z,100774.58
2023-02-11T15:33:00.804Z,100783.05
2023-02-11T15:36:38.780Z,100773.52
2023-02-11T15:40:35.716Z,100784.95
2023-02-11T15:44:42.444Z,100767.45
2023-02-11T15:48:43.095Z,100786.45
2023-02-11T15:52:28.007Z,100793.95
2023-02-11T15:56:31.616Z,100782.55
2023-02-11T16:00:31.174Z,100792.66
2023-02-11T16:04:29.780Z,100798.05
2023-02-11T16:08:42.168Z,100801.84
2023-02-11T16:13:03.827Z,100806.52
2023-02-11T16:17:16.442Z,100816.02
2023-02-11T16:21:20.576Z,100824.29
2023-02-11T16:25:31.034Z,100817.61
2023-02-11T16:29:24.574Z,100829.80
2023-02-11T16:33:08.956Z,100838.45
2023-02-11T16:37:17.404Z,100846.77
2023-02-11T16:41:20.964Z,100843.77
2023-02-11T16:45:40.220Z,100842.31
2023-02-11T16:49:29.063Z,100845.27
2023-02-11T16:53:32.701Z,100853.59
2023-02-11T16:57:36.303Z,100866.84
2023-02-11T17:01:45.961Z,100870.67
2023-02-11T17:05:57.836Z,100875.51
2023-02-11T17:09:44.413Z,100876.30
2023-02-11T17:13:47.990Z,100880.59
2023-02-11T17:17:45.064Z,100892.77
2023-02-11T17:21:41.975Z,100896.92
2023-02-11T17:25:39.757Z,100894.77
2023-02-11T17:29:23.476Z,100892.85
2023-02-11T17:33:31.444Z,100905.86
2023-02-11T17:37:34.993Z,100917.50
2023-02-11T17:41:25.235Z,100922.41
2023-02-11T17:45:27.964Z,100930.88
2023-02-11T17:49:32.140Z,100940.74
2023-02-11T17:53:36.246Z,100948.73
2023-02-11T17:57:26.594Z,100951.81
2023-02-11T18:01:21.636Z,100954.59
2023-02-11T18:04:58.779Z,100956.14
2023-02-11T18:08:45.276Z,100963.23
2023-02-11T18:12:31.528Z,100976.92
2023-02-11T18:17:32.036Z,100977.59
